x

9449880 - Friday Harbor, Wa (frdw1) Weather Station

11:36 - Tue 23rd May 2017 All times are PDT. -7 hours from GMT.

  • Wind
    6mph, 11mph gusts
  • Sea Temp 50°f
  • Luft Temp 50°f
  • Sea Pressure 1017.7mb
  • 9449880 - Friday Harbor, Wa
  • 9449880 - Friday Harbor, Wa

More Historic Weather Station data

Upgrade to MSW Pro to gain access to the past 30 days of data for over 8000 Wavebouys and Weather Stations around the globe.

Join Pro

Comparision Forecast

View Surf forecast
   
Di 05/23 11:36 6 11 mph 1017.7mb 50f 50f
11:30 7 10 mph 1017.7mb 50f 50f
11:24 5 9 mph 1017.7mb 50f 50f
11:18 7 11 mph 1017.5mb 50f 50f
11:12 8 13 mph 1017.4mb 50f 50f
11:06 6 13 mph 1017.4mb 50f 50f
11:00 6 14 mph 1017.4mb 50f 50f
10:36 7 13 mph 1017.1mb 50f 50f
10:30 7 14 mph 1017.1mb 50f 50f
10:24 8 14 mph 1017.2mb 50f 50f
10:18 9 18 mph 1017.1mb 50f 50f
10:12 9 16 mph 1017.1mb 51f 50f
10:06 10 17 mph 1017.1mb 51f 50f
10:00 11 22 mph 1017mb 51f 51f
9:36 14 22 mph 1016.3mb 51f 51f
9:30 15 23 mph 1016.2mb 51f 51f
9:24 20 29 mph 1016mb 51f 51f
9:18 17 29 mph 1015.9mb 51f 51f
9:12 21 28 mph 1015.7mb 51f 51f
9:06 21 30 mph 1015.5mb 51f 51f
9:00 17 25 mph 1015.6mb 51f 51f
8:36 25 33 mph 1014.9mb 51f 52f
8:30 16 29 mph 1014.9mb 51f 52f
8:24 21 37 mph 1014.7mb 51f 52f
8:18 24 37 mph 1014.7mb 51f 52f
8:12 26 37 mph 1014.4mb 51f 53f
8:06 23 36 mph 1014.4mb 51f 53f
8:00 15 39 mph 1014.4mb 51f 53f
7:36 16 32 mph 1014.4mb 50f 54f
7:30 26 41 mph 1014.2mb 50f 54f
7:24 26 37 mph 1013.9mb 50f 54f
7:18 30 52 mph 1013.7mb 50f 54f
7:12 31 41 mph 1013.7mb 50f 54f
7:06 29 37 mph 1013.9mb 50f 55f
7:00 21 33 mph 1013.8mb 50f 55f
6:36 31 44 mph 1013.8mb 50f 56f
6:30 32 47 mph 1013.7mb 50f 56f
6:24 33 45 mph 1013.6mb 50f 56f
6:18 30 44 mph 1013.7mb 50f 56f
6:12 31 44 mph 1013.8mb 50f 57f
6:06 30 38 mph 1014.1mb 50f 57f
6:00 26 34 mph 1014.3mb 50f 57f
5:36 23 39 mph 1014.6mb 50f 58f
5:30 26 39 mph 1014.6mb 50f 58f
5:24 21 34 mph 1014.9mb 50f 59f
5:18 16 31 mph 1014.9mb 50f 61f
5:12 18 26 mph 1014.8mb 50f 61f
5:06 20 29 mph 1014.7mb 50f 62f
5:00 10 21 mph 1014.7mb 50f 65f
4:36 14 29 mph 1014.3mb 50f 66f
4:30 10 26 mph 1014.3mb 50f 66f
4:24 9 22 mph 1014.3mb 50f 67f
4:18 13 22 mph 1014.2mb 50f 67f
4:12 11 31 mph 1014mb 50f 67f
4:06 16 26 mph 1014mb 50f 68f
4:00 10 23 mph 1013.8mb 50f 70f
3:36 14 29 mph 1013.5mb 50f 71f
3:30 10 34 mph 1013.5mb 50f 71f
3:24 9 25 mph 1013.6mb 50f 71f
3:18 15 30 mph 1013.7mb 50f 71f
3:12 13 29 mph 1013.7mb 50f 71f
3:06 16 36 mph 1013.7mb 50f 71f
3:00 23 32 mph 1013.5mb 50f 70f
2:36 24 31 mph 1013.7mb 50f 67f
2:30 22 26 mph 1013.7mb 50f 66f
2:24 22 34 mph 1013.7mb 50f 66f
2:18 25 33 mph 1013.7mb 50f 65f
2:12 23 31 mph 1013.7mb 50f 66f
2:06 18 26 mph 1013.7mb 50f 66f
2:00 15 22 mph 1013.8mb 50f 67f
1:36 20 24 mph 1014.1mb 50f 67f
1:30 13 16 mph 1014.2mb 50f 65f
1:24 7 11 mph 1014.2mb 50f 66f
1:18 11 17 mph 1014.4mb 50f 65f
1:12 5 6 mph 1014.5mb 51f 63f
1:06 1 3 mph 1014.6mb 51f 60f
1:00 1 5 mph 1014.7mb 51f 57f
12:36 3 6 mph 1015mb 51f 56f
12:30 3 6 mph 1015mb 51f 55f
12:24 5 6 mph 1015.1mb 51f 57f
12:18 5 6 mph 1015.2mb 51f 56f
12:12 5 6 mph 1015.3mb 51f 56f
12:06 6 9 mph 1015.3mb 51f 56f
12:00 8 9 mph 1015.4mb 51f 55f
11:36 9 10 mph 1015.3mb 51f 54f
11:30 8 10 mph 1015.3mb 51f 55f
11:24 10 11 mph 1015.3mb 51f 54f
11:18 8 10 mph 1015.4mb 51f 55f
11:12 7 9 mph 1015.3mb 51f 56f
11:06 5 5 mph 1015.3mb 51f 57f
11:00 2 5 mph 1015.4mb 51f 58f
10:36 6 8 mph 1015.5mb 50f 56f
10:30 5 5 mph 1015.5mb 50f 56f
10:24 2 6 mph 1015.4mb 50f 56f
10:18 2 8 mph 1015.6mb 50f 56f
10:12 7 11 mph 1015.7mb 50f 55f
10:06 8 10 mph 1015.8mb 51f 56f
10:00 7 9 mph 1015.8mb 51f 56f
9:36 6 8 mph 1015.9mb 50f 57f
9:30 5 8 mph 1015.8mb 50f 57f
9:24 6 10 mph 1015.9mb 50f 57f
9:18 6 9 mph 1016mb 50f 57f
9:12 3 8 mph 1016.1mb 50f 58f
9:06  -  2 mph 1016.1mb 50f 59f
9:00  -  2 mph 1016.1mb 50f 57f
8:36 3 5 mph 1016.2mb 50f 54f
8:30 5 6 mph 1016.2mb 50f 54f
8:24 2 3 mph 1016.3mb 50f 58f
8:18 3 3 mph 1016.4mb 50f 58f
8:12 2 3 mph 1016.4mb 51f 58f
8:06 5 7 mph 1016.4mb 50f 56f
8:00 6 7 mph 1016.5mb 50f 55f
7:36  -  1 mph 1016.5mb 51f 56f
7:30  -  3 mph 1016.5mb 51f 55f
7:24  -  2 mph 1016.5mb 51f 57f
7:18 1 2 mph 1016.5mb 51f 56f
7:12 1 2 mph 1016.6mb 51f 55f
7:06 2 2 mph 1016.6mb 50f 54f
7:00 1 2 mph 1016.7mb 50f 55f
6:36  -  3 mph 1016.9mb 51f 53f
6:30 2 2 mph 1016.9mb 51f 53f
6:24  -  0 mph 1016.8mb 51f 57f
6:18  -  1 mph 1016.9mb 51f 56f
6:12  -  1 mph 1016.7mb 51f 55f
6:06 1 2 mph 1016.6mb 51f 53f
6:00 1 3 mph 1016.6mb 51f 52f
5:36 2 3 mph 1016.6mb 51f 50f
5:30 2 2 mph 1016.6mb 51f 50f
5:24  -  3 mph 1016.5mb 51f 49f
5:18 2 3 mph 1016.5mb 51f 49f
5:12 5 5 mph 1016.6mb 51f 50f
5:06  -  1 mph 1016.5mb 51f 51f
5:00  -  2 mph 1016.4mb 51f 51f
4:36  -  1 mph 1016.4mb 50f 51f
4:30 1 3 mph 1016.5mb 50f 51f
4:24 3 3 mph 1016.5mb 50f 51f
4:18  -  1 mph 1016.6mb 50f 51f
4:12 1 1 mph 1016.7mb 50f 51f
4:06  -  1 mph 1016.7mb 50f 51f
4:00 1 2 mph 1016.7mb 50f 52f
3:36 1 3 mph 1016.3mb 50f 54f
3:30 2 5 mph 1016.2mb 50f 53f
3:24 2 5 mph 1016.2mb 50f 53f
3:18 1 3 mph 1016.1mb 50f 53f
3:12 1 3 mph 1016.1mb 50f 53f
3:06 1 5 mph 1016.1mb 50f 52f
3:00 3 5 mph 1016.1mb 50f 52f
2:36  -  1 mph 1016.3mb 50f 53f
2:30  -  1 mph 1016.4mb 50f 52f
2:24  -  2 mph 1016.5mb 50f 52f
2:18 2 2 mph 1016.6mb 50f 52f
2:12  -  1 mph 1016.5mb 50f 54f
2:06  -  1 mph 1016.6mb 50f 54f
2:00  -  1 mph 1016.5mb 50f 54f
1:36  -  2 mph 1016.7mb 51f 53f
1:30 2 5 mph 1016.8mb 51f 52f
1:24 3 3 mph 1016.9mb 51f 53f
1:18  -  1 mph 1016.9mb 51f 55f
1:12  -  3 mph 1016.9mb 51f 54f
1:06  -  3 mph 1016.9mb 51f 54f
1:00  -  2 mph 1016.8mb 51f 54f
12:36 1 2 mph 1016.9mb 51f 54f
12:30  -  2 mph 1016.9mb 51f 54f
12:24  -  2 mph 1016.9mb 51f 55f
12:18 2 2 mph 1016.9mb 51f 55f
12:12 2 2 mph 1016.9mb 51f 56f
12:06  -  2 mph 1016.9mb 51f 55f
12:00 1 5 mph 1016.9mb 51f 55f
Mo 05/22 11:54 3 6 mph 1016.8mb 51f 55f
11:48 3 5 mph 1016.9mb 51f 55f
11:36 6 7 mph 1017mb 51f 56f
11:30 5 7 mph 1017mb 51f 56f
11:24 6 7 mph 1017.1mb 51f 56f
11:18 6 7 mph 1017.1mb 51f 56f
11:12 5 6 mph 1017.1mb 51f 56f
11:06 3 5 mph 1017.1mb 51f 58f
11:00 2 5 mph 1017.1mb 51f 59f
10:54 2 5 mph 1017.2mb 51f 59f
10:48 2 3 mph 1017.3mb 51f 59f
10:36 2 5 mph 1017.2mb 51f 57f
10:30 3 5 mph 1017.3mb 51f 57f
10:24 2 3 mph 1017.3mb 51f 60f
10:18 2 3 mph 1017.3mb 51f 60f
10:12 1 3 mph 1017.4mb 51f 60f
10:06 2 3 mph 1017.4mb 51f 59f
10:00 2 3 mph 1017.4mb 51f 59f
9:54 2 2 mph 1017.4mb 51f 59f
9:48 1 2 mph 1017.5mb 51f 59f
9:36 2 3 mph 1017.5mb 51f 60f
9:30 1 2 mph 1017.5mb 51f 57f
9:24  -  2 mph 1017.6mb 51f 58f
9:18 1 2 mph 1017.6mb 51f 59f
9:12 1 2 mph 1017.5mb 51f 60f
9:06 1 1 mph 1017.5mb 51f 60f
9:00  -  1 mph 1017.5mb 51f 60f
8:54  -  2 mph 1017.6mb 51f 60f
8:48  -  1 mph 1017.6mb 51f 62f
8:36  -  1 mph 1017.6mb 51f 64f
8:30 1 2 mph 1017.6mb 51f 64f
8:24  -  0 mph 1017.6mb 51f 64f
8:18  -  1 mph 1017.6mb 51f 64f
8:12  -  0 mph 1017.6mb 51f 64f
8:06  -  1 mph 1017.7mb 51f 65f
8:00  -  2 mph 1017.7mb 51f 65f
7:54 1 2 mph 1017.7mb 51f 65f
7:36  -  1 mph 1017.7mb 51f 67f
7:30 1 2 mph 1017.7mb 51f 67f
7:24  -  2 mph 1017.7mb 51f 67f
7:18  -  3 mph 1017.7mb 51f 69f
7:12  -  1 mph 1017.7mb 51f 70f
7:06  -  2 mph 1017.7mb 51f 70f
7:00 2 3 mph 1017.6mb 51f 70f
6:54 1 2 mph 1017.6mb 51f 71f
6:48  -  2 mph 1017.6mb 51f 71f
6:36  -  1 mph 1017.7mb 51f 70f
6:30  -  1 mph 1017.7mb 51f 70f
6:24  -  2 mph 1017.7mb 51f 69f
6:18  -  2 mph 1017.8mb 51f 73f
6:12 1 3 mph 1017.8mb 51f 73f
6:06 1 2 mph 1017.9mb 51f 71f
6:00 1 3 mph 1017.9mb 51f 73f
5:54  -  5 mph 1018mb 51f 74f
5:48  -  5 mph 1018.1mb 51f 74f
5:36 2 5 mph 1018.2mb 51f 74f
5:30 3 6 mph 1018.3mb 51f 74f
5:24 3 6 mph 1018.3mb 51f 73f
5:18 2 3 mph 1018.4mb 51f 75f
5:12 1 5 mph 1018.5mb 50f 74f
5:06 2 6 mph 1018.5mb 50f 74f
5:00 2 6 mph 1018.5mb 50f 74f
4:54 5 8 mph 1018.6mb 50f 74f
4:48 6 8 mph 1018.7mb 50f 74f
4:36 5 7 mph 1018.8mb 50f 74f
4:30 3 6 mph 1018.8mb 50f 74f
4:24 6 7 mph 1018.9mb 50f 73f
4:18 6 8 mph 1019mb 50f 73f
4:12 8 10 mph 1019.1mb 50f 71f
4:06 8 9 mph 1019.1mb 50f 73f
4:00 6 9 mph 1019.3mb 50f 73f
3:54 5 7 mph 1019.4mb 50f 73f
3:48 6 9 mph 1019.5mb 50f 73f
3:36 3 6 mph 1019.7mb 50f 73f
3:30 2 6 mph 1019.8mb 50f 73f
3:24 3 8 mph 1019.8mb 50f 72f
3:18 5 7 mph 1019.9mb 50f 72f
3:12 2 7 mph 1020mb 50f 72f
3:06 3 10 mph 1020.1mb 50f 72f
3:00 7 10 mph 1020mb 50f 71f
2:54 5 10 mph 1020.1mb 50f 71f
2:48 5 11 mph 1020.1mb 50f 70f
2:36 3 7 mph 1020.5mb 50f 70f
2:30 2 9 mph 1020.4mb 50f 70f
2:24 3 6 mph 1020.4mb 50f 70f
2:18 2 7 mph 1020.4mb 50f 71f
2:12 2 8 mph 1020.4mb 50f 71f
2:06 5 8 mph 1020.4mb 50f 70f
2:00 5 8 mph 1020.5mb 50f 70f
1:54 2 6 mph 1020.5mb 50f 70f
1:48 3 7 mph 1020.6mb 50f 70f
1:36 3 6 mph 1020.7mb 50f 69f
1:30 2 7 mph 1020.7mb 50f 69f
1:24 3 9 mph 1020.9mb 50f 70f
1:18 3 7 mph 1020.9mb 50f 69f
1:12 3 9 mph 1021mb 50f 69f
1:06 7 11 mph 1021mb 50f 69f
1:00 6 9 mph 1021mb 50f 69f
12:54 6 9 mph 1021mb 50f 69f
12:48 5 7 mph 1021.1mb 50f 69f
12:36 3 8 mph 1021.2mb 50f 68f
12:30 3 7 mph 1021.3mb 50f 68f
12:24 5 9 mph 1021.4mb 50f 68f
12:18 6 9 mph 1021.5mb 50f 67f
12:12 5 7 mph 1021.5mb 50f 68f
12:06 3 6 mph 1021.6mb 50f 68f
12:00 3 6 mph 1021.7mb 50f 68f
11:54 5 7 mph 1021.8mb 50f 68f
11:48 6 8 mph 1021.8mb 50f 68f
11:36 3 8 mph 1021.9mb 50f 67f
11:30 6 9 mph 1021.8mb 50f 67f
11:24 8 9 mph 1021.8mb 50f 66f
11:18 2 8 mph 1021.9mb 50f 67f
11:12 3 7 mph 1022mb 50f 66f
11:06 3 8 mph 1022.1mb 50f 66f
11:00 3 7 mph 1022.2mb 50f 65f
10:54 3 6 mph 1022.4mb 50f 65f
10:48 2 6 mph 1022.5mb 50f 65f
10:36 3 7 mph 1022.6mb 50f 65f
10:30 3 7 mph 1022.6mb 50f 65f
10:24 2 8 mph 1022.6mb 50f 65f
10:18 5 7 mph 1022.5mb 50f 65f
10:12 3 7 mph 1022.5mb 50f 65f
10:06 3 7 mph 1022.5mb 50f 65f
10:00 5 8 mph 1022.4mb 50f 64f
9:54 6 8 mph 1022.5mb 50f 64f
9:48 6 11 mph 1022.5mb 50f 64f
9:36 5 8 mph 1022.6mb 50f 63f
9:30 2 5 mph 1022.6mb 50f 64f
9:24 2 6 mph 1022.6mb 50f 63f
9:18 2 6 mph 1022.6mb 50f 63f
9:12 1 7 mph 1022.6mb 50f 63f
9:06 2 6 mph 1022.7mb 50f 62f
9:00 2 6 mph 1022.7mb 50f 62f
8:54 2 7 mph 1022.7mb 50f 62f
8:48 3 8 mph 1022.7mb 50f 61f
8:36 2 5 mph 1022.6mb 50f 61f
8:30 1 3 mph 1022.6mb 50f 60f
8:24  -  3 mph 1022.5mb 50f 58f
8:18 1 2 mph 1022.5mb 50f 56f
8:12 2 2 mph 1022.3mb 50f 55f
8:06 1 2 mph 1022.3mb 50f 55f
8:00 2 2 mph 1022.4mb 50f 54f
7:54 2 3 mph 1022.3mb 50f 55f
7:48 2 3 mph 1022.3mb 50f 55f
7:36 3 5 mph 1022.2mb 50f 54f
7:30 1 2 mph 1022.3mb 50f 55f
7:24  -  1 mph 1022.3mb 50f 54f
7:18  -  2 mph 1022.3mb 50f 53f
7:12 1 2 mph 1022.4mb 50f 53f
7:06 2 3 mph 1022.5mb 50f 52f
7:00 1 2 mph 1022.5mb 50f 53f
6:54 2 2 mph 1022.5mb 50f 53f
6:48  -  2 mph 1022.5mb 50f 53f
5:54  -  1 mph 1022.4mb 50f 50f
5:48 1 2 mph 1022.4mb 50f 50f
5:36  -  0 mph 1022.3mb 50f 50f
5:30 1 2 mph 1022.2mb 50f 50f
5:24 1 2 mph 1022.2mb 50f 50f
5:18 1 2 mph 1022.1mb 50f 49f
5:12  -  2 mph 1022.1mb 50f 50f
5:06  -  1 mph 1022.2mb 50f 50f
5:00  -  1 mph 1022.2mb 50f 50f
4:54 1 2 mph 1022.2mb 50f 50f
4:48 1 2 mph 1022.3mb 50f 50f
4:36 2 3 mph 1022.2mb 50f 49f
4:30 1 1 mph 1022.2mb 50f 50f
4:24  -  1 mph 1022.2mb 50f 51f
4:18  -  2 mph 1022.3mb 50f 50f
4:12  -  1 mph 1022.4mb 50f 51f
4:06 1 3 mph 1022.4mb 50f 50f
4:00  -  1 mph 1022.4mb 50f 51f
3:54  -  1 mph 1022.4mb 50f 51f
3:48  -  2 mph 1022.5mb 50f 51f
3:36  -  1 mph 1022.5mb 50f 51f
3:30  -  1 mph 1022.4mb 50f 51f
3:24  -  1 mph 1022.5mb 50f 51f
3:18  -  1 mph 1022.5mb 50f 51f
3:12  -  0 mph 1022.5mb 50f 51f
3:06  -  0 mph 1022.5mb 50f 51f
3:00  -  0 mph 1022.5mb 50f 51f
2:54  -  0 mph 1022.5mb 50f 51f
2:48  -  0 mph 1022.4mb 50f 51f
2:36  -  0 mph 1022.3mb 50f 51f
2:30  -  1 mph 1022.3mb 50f 51f
2:24  -  1 mph 1022.2mb 50f 51f
2:18  -  2 mph 1022.3mb 50f 51f
2:12  -  1 mph 1022.2mb 50f 51f
2:06  -  1 mph 1022.2mb 50f 51f
2:00  -  1 mph 1022.2mb 50f 52f
1:54  -  0 mph 1022.2mb 50f 51f
1:48  -  1 mph 1022.1mb 50f 52f
1:36  -  0 mph 1022.2mb 50f 52f
1:30  -  0 mph 1022.2mb 50f 52f
1:24  -  1 mph 1022.3mb 50f 51f
1:18 1 2 mph 1022.3mb 50f 52f
1:12 1 1 mph 1022.3mb 50f 52f
1:06  -  1 mph 1022.3mb 50f 52f
1:00  -  2 mph 1022.3mb 50f 52f
12:54 2 2 mph 1022.3mb 50f 52f
12:48 2 2 mph 1022.3mb 50f 52f
12:36 3 3 mph 1022.3mb 50f 52f
12:30 2 3 mph 1022.2mb 50f 53f
12:24 3 5 mph 1022.2mb 50f 52f
12:18  -  1 mph 1022.1mb 50f 53f
12:12 2 3 mph 1022.2mb 50f 53f
12:06 3 3 mph 1022.2mb 50f 54f
12:00 2 3 mph 1022.2mb 50f 53f
So 05/21 11:54  -  3 mph 1022.2mb 50f 54f
11:48  -  0 mph 1022.2mb 50f 55f
11:36  -  1 mph 1022.2mb 50f 55f
11:30  -  1 mph 1022.3mb 50f 55f
11:24  -  1 mph 1022.4mb 50f 54f
11:18  -  1 mph 1022.5mb 50f 54f
11:12  -  1 mph 1022.4mb 50f 54f
11:06  -  1 mph 1022.5mb 50f 54f
11:00  -  1 mph 1022.5mb 50f 55f
10:54  -  0 mph 1022.4mb 50f 55f
10:48  -  1 mph 1022.4mb 50f 55f
10:36 2 3 mph 1022.4mb 50f 55f
10:30 2 2 mph 1022.3mb 50f 55f
10:24 2 3 mph 1022.3mb 50f 55f
10:18 2 3 mph 1022.2mb 51f 55f
10:12 1 2 mph 1022.2mb 51f 56f
10:06 1 2 mph 1022.2mb 50f 57f
10:00 2 2 mph 1022.2mb 50f 57f
9:54  -  0 mph 1022.2mb 50f 57f
9:48  -  0 mph 1022.2mb 50f 58f
9:36  -  1 mph 1022.1mb 50f 58f
9:30  -  0 mph 1022.1mb 50f 58f
9:24  -  1 mph 1022.1mb 50f 59f
9:18  -  0 mph 1022.1mb 50f 59f
9:12  -  0 mph 1022.1mb 51f 59f
9:06  -  0 mph 1022.1mb 51f 59f
9:00  -  1 mph 1022.1mb 51f 59f
8:54  -  0 mph 1022mb 51f 59f
8:48  -  1 mph 1021.9mb 51f 59f
8:36  -  1 mph 1021.8mb 51f 59f
8:30  -  1 mph 1021.8mb 51f 59f
8:24 1 2 mph 1021.9mb 51f 58f
8:18  -  2 mph 1021.8mb 51f 62f
8:12 1 2 mph 1021.9mb 51f 63f
8:06  -  3 mph 1021.9mb 51f 63f
8:00  -  2 mph 1021.9mb 51f 63f
7:54 1 2 mph 1022mb 51f 63f
7:48  -  1 mph 1022mb 51f 63f
7:36 2 3 mph 1022mb 51f 63f
7:30  -  1 mph 1022.1mb 50f 63f
7:24  -  1 mph 1022mb 50f 61f
7:18  -  1 mph 1022mb 50f 62f
7:12  -  1 mph 1022mb 50f 65f
7:06  -  2 mph 1021.9mb 50f 64f
7:00  -  3 mph 1021.9mb 50f 64f
6:54 1 2 mph 1021.9mb 50f 68f
6:48 1 2 mph 1022mb 50f 68f
6:36 1 2 mph 1022.1mb 51f 68f
6:30  -  2 mph 1022.1mb 51f 68f
6:24 1 3 mph 1022.2mb 50f 68f
6:18 2 3 mph 1022.2mb 50f 67f
6:12 2 5 mph 1022.3mb 50f 67f
6:06 2 3 mph 1022.3mb 50f 67f
6:00 1 3 mph 1022.4mb 50f 67f
5:54 2 3 mph 1022.4mb 50f 67f
5:48 1 3 mph 1022.4mb 50f 68f
5:36 1 5 mph 1022.5mb 50f 67f
5:30  -  5 mph 1022.6mb 50f 68f
5:24 1 2 mph 1022.7mb 50f 67f
5:18 2 5 mph 1022.7mb 50f 67f
5:12 2 5 mph 1022.7mb 50f 68f
5:06 3 6 mph 1022.7mb 50f 68f
5:00 1 5 mph 1022.8mb 50f 68f
4:54 1 5 mph 1022.8mb 50f 69f
4:48 1 5 mph 1022.9mb 50f 68f
4:36 2 6 mph 1022.9mb 50f 69f
4:30 3 8 mph 1023mb 50f 69f
4:24 5 7 mph 1023mb 50f 69f
4:18 3 9 mph 1023.1mb 50f 69f
4:12 5 8 mph 1023.1mb 50f 69f
4:06 3 7 mph 1023.2mb 50f 70f
4:00 3 6 mph 1023.2mb 50f 69f
3:54 3 6 mph 1023.3mb 50f 70f
3:48 3 6 mph 1023.3mb 50f 70f
3:36 2 6 mph 1023.4mb 50f 70f
3:30 1 5 mph 1023.4mb 50f 70f
3:24 5 6 mph 1023.4mb 50f 69f
3:18 3 7 mph 1023.4mb 50f 69f
3:12 3 6 mph 1023.5mb 50f 69f
3:06 3 7 mph 1023.6mb 50f 69f
3:00 3 8 mph 1023.6mb 50f 69f
2:54 3 10 mph 1023.7mb 50f 69f
2:48 5 8 mph 1023.7mb 50f 69f
2:36 3 7 mph 1023.8mb 50f 68f
2:30 3 7 mph 1023.9mb 50f 67f
2:24 1 6 mph 1024mb 50f 68f
2:18 2 5 mph 1024mb 50f 69f
2:12 5 8 mph 1024.1mb 50f 68f
2:06 6 9 mph 1024.1mb 50f 68f
2:00 3 9 mph 1024.1mb 50f 68f
1:54 2 6 mph 1024.1mb 50f 68f
1:48 5 7 mph 1024.1mb 50f 67f
1:36 3 7 mph 1024.3mb 50f 67f
1:30 5 8 mph 1024.4mb 50f 67f
1:24 5 9 mph 1024.4mb 50f 67f
1:18 5 8 mph 1024.4mb 50f 66f
1:12 3 7 mph 1024.5mb 50f 66f
1:06 3 6 mph 1024.6mb 50f 66f
1:00 3 6 mph 1024.6mb 50f 65f
12:54 2 5 mph 1024.6mb 50f 66f
12:48 2 3 mph 1024.6mb 50f 65f
12:36 2 7 mph 1024.6mb 50f 65f
12:30 6 8 mph 1024.7mb 50f 64f
12:24 5 7 mph 1024.7mb 50f 64f
12:18 3 8 mph 1024.7mb 50f 64f
12:12 5 7 mph 1024.7mb 50f 64f
12:06 2 7 mph 1024.8mb 50f 64f
12:00 3 7 mph 1024.8mb 50f 64f
11:54 5 8 mph 1024.7mb 50f 65f
11:48 5 7 mph 1024.7mb 50f 64f
11:36 5 7 mph 1024.8mb 50f 63f
11:30  -  5 mph 1024.8mb 50f 64f
11:24 5 7 mph 1024.8mb 50f 62f
11:18 5 7 mph 1024.9mb 50f 62f
11:12 3 7 mph 1024.9mb 50f 63f
11:06 5 7 mph 1024.9mb 50f 62f
11:00 5 7 mph 1024.9mb 50f 62f
10:54 3 7 mph 1025mb 50f 62f
10:48 5 6 mph 1025mb 50f 61f
10:36 3 6 mph 1025mb 50f 60f
10:30 3 7 mph 1025mb 50f 61f
10:24 3 6 mph 1025mb 50f 60f
10:18 2 6 mph 1025mb 50f 60f
10:12 2 7 mph 1025mb 50f 59f
10:06 3 8 mph 1025.1mb 50f 59f
10:00 5 7 mph 1025mb 50f 58f
9:54 5 8 mph 1025mb 50f 58f
9:36 6 9 mph 1025.1mb 50f 58f
9:30 6 7 mph 1025.2mb 50f 58f
9:24 6 8 mph 1025.2mb 50f 58f
9:18 3 8 mph 1025.2mb 50f 58f
9:12 5 8 mph 1025.1mb 50f 58f
9:06 5 7 mph 1025.1mb 50f 58f
9:00 1 3 mph 1025.2mb 50f 57f
8:54 1 5 mph 1025.2mb 50f 57f
8:48  -  2 mph 1025.1mb 50f 55f
8:36  -  2 mph 1025mb 50f 53f
8:30 1 3 mph 1024.9mb 50f 51f
8:24 3 3 mph 1024.9mb 50f 51f
8:18 3 5 mph 1024.9mb 50f 51f
8:12 2 3 mph 1024.9mb 50f 52f
8:06 2 2 mph 1024.9mb 50f 51f
8:00 1 2 mph 1024.9mb 50f 52f
7:54 1 2 mph 1024.9mb 50f 51f
7:48 1 2 mph 1025mb 50f 51f
7:36 1 2 mph 1024.9mb 50f 51f
7:30 2 2 mph 1024.9mb 50f 51f
7:24 2 2 mph 1024.8mb 50f 51f
7:18  -  1 mph 1024.8mb 50f 53f
7:12  -  1 mph 1024.8mb 50f 53f
7:06  -  0 mph 1024.7mb 50f 52f
7:00  -  0 mph 1024.6mb 50f 51f
6:54  -  1 mph 1024.6mb 50f 50f
6:36 5 6 mph 1024.7mb 50f 49f
6:30 6 6 mph 1024.6mb 50f 49f
6:24 5 5 mph 1024.7mb 50f 49f
6:18  -  2 mph 1024.5mb 50f 48f
6:12 2 2 mph 1024.5mb 50f 48f
6:06 2 2 mph 1024.6mb 50f 48f
6:00  -  2 mph 1024.5mb 50f 48f
5:54 1 2 mph 1024.5mb 50f 48f
5:48 1 1 mph 1024.5mb 50f 48f
5:36 2 2 mph 1024.5mb 50f 47f
5:30 2 2 mph 1024.5mb 50f 47f
5:24 2 3 mph 1024.5mb 50f 47f
5:18  -  1 mph 1024.5mb 50f 48f
5:12 1 2 mph 1024.5mb 50f 48f
5:06  -  0 mph 1024.5mb 50f 48f
5:00  -  0 mph 1024.5mb 50f 48f
4:54  -  1 mph 1024.5mb 50f 48f
4:48 1 2 mph 1024.5mb 50f 48f
4:36  -  2 mph 1024.4mb 50f 48f
4:30 1 3 mph 1024.4mb 50f 48f
4:24  -  2 mph 1024.4mb 50f 49f
4:18  -  1 mph 1024.3mb 50f 50f
4:12  -  2 mph 1024.3mb 50f 50f
4:06  -  2 mph 1024.2mb 50f 50f
4:00 1 2 mph 1024.3mb 50f 50f
3:54  -  1 mph 1024.2mb 50f 50f
3:48  -  1 mph 1024mb 50f 50f
3:36  -  1 mph 1024.1mb 50f 50f
3:30  -  0 mph 1024.1mb 50f 49f
3:24  -  0 mph 1024mb 50f 49f
3:18  -  1 mph 1024mb 50f 50f
3:12  -  1 mph 1024.1mb 50f 50f
3:06  -  1 mph 1024.1mb 50f 50f
3:00  -  0 mph 1024mb 50f 49f
2:54  -  1 mph 1024mb 50f 49f
2:48  -  0 mph 1024mb 50f 49f
2:36  -  1 mph 1023.9mb 50f 49f
2:30  -  1 mph 1023.9mb 50f 50f
2:24  -  2 mph 1023.8mb 50f 50f
2:18 1 2 mph 1023.8mb 50f 50f
2:12 1 2 mph 1023.8mb 50f 50f
2:06 1 2 mph 1023.8mb 50f 50f
2:00 1 2 mph 1023.8mb 50f 50f
1:54  -  1 mph 1023.8mb 50f 49f
1:48  -  2 mph 1023.8mb 50f 50f
1:36 2 3 mph 1023.6mb 50f 50f
1:30  -  2 mph 1023.7mb 50f 49f
1:24 2 3 mph 1023.8mb 50f 49f
1:18  -  2 mph 1023.5mb 50f 49f
1:12 2 2 mph 1023.4mb 50f 50f
1:06 1 1 mph 1023.4mb 50f 50f
1:00  -  1 mph 1023.4mb 50f 50f
12:54  -  1 mph 1023.4mb 50f 50f
12:36 1 2 mph 1023.4mb 50f 50f
12:30 1 2 mph 1023.4mb 50f 50f
12:24  -  2 mph 1023.4mb 50f 50f
12:18 2 2 mph 1023.3mb 50f 50f
12:12 1 3 mph 1023.3mb 50f 50f
12:06 2 3 mph 1023.3mb 50f 50f
12:00 3 3 mph 1023.3mb 50f 50f
Sa 05/20 11:54 3 3 mph 1023.3mb 50f 50f
11:48 1 2 mph 1023.2mb 50f 50f
11:36  -  2 mph 1023.2mb 50f 50f
11:30 1 2 mph 1023.2mb 50f 50f
11:24 1 2 mph 1023.1mb 50f 50f
11:18 1 1 mph 1023.1mb 50f 50f
11:12  -  1 mph 1023mb 50f 50f
11:06  -  0 mph 1023mb 50f 50f
11:00  -  1 mph 1022.9mb 50f 50f
10:54  -  1 mph 1022.9mb 50f 50f
10:48  -  2 mph 1022.9mb 50f 51f
10:36 2 3 mph 1022.7mb 50f 50f
10:30 2 3 mph 1022.7mb 50f 51f
10:24 2 3 mph 1022.7mb 50f 51f
10:18 2 3 mph 1022.6mb 50f 51f
10:12  -  2 mph 1022.5mb 50f 51f
10:06 1 3 mph 1022.5mb 50f 51f
10:00 3 6 mph 1022.5mb 50f 51f
9:54 3 5 mph 1022.4mb 50f 51f
9:48 3 5 mph 1022.4mb 50f 51f
9:36 2 5 mph 1022.2mb 50f 52f
9:30 2 5 mph 1022.3mb 50f 53f
9:24 3 5 mph 1022.2mb 50f 53f
9:18 3 6 mph 1022.2mb 50f 54f
9:12 3 6 mph 1022.2mb 50f 54f
9:06 3 6 mph 1022.1mb 50f 54f
9:00 5 7 mph 1022.1mb 50f 54f
8:54 6 7 mph 1022mb 50f 55f
8:48 2 6 mph 1022.1mb 50f 55f
8:36 5 6 mph 1022mb 51f 57f
8:30 6 7 mph 1021.9mb 51f 57f
8:24 7 7 mph 1021.8mb 51f 58f
8:18 7 7 mph 1021.8mb 51f 59f
8:12 7 8 mph 1021.8mb 51f 59f
8:06 7 9 mph 1021.8mb 51f 60f
8:00 8 9 mph 1021.8mb 51f 61f
7:54 9 9 mph 1021.8mb 51f 62f
7:48 7 8 mph 1021.8mb 51f 63f
7:36 7 7 mph 1021.8mb 51f 64f
7:30 6 8 mph 1021.8mb 51f 65f
7:24 7 8 mph 1021.8mb 51f 65f
7:18 6 7 mph 1021.7mb 51f 65f
7:12 6 7 mph 1021.7mb 51f 65f
7:06 6 7 mph 1021.7mb 51f 65f
7:00 7 8 mph 1021.7mb 51f 66f
6:54 5 8 mph 1021.6mb 51f 66f
6:48 6 9 mph 1021.6mb 51f 66f
6:36 7 8 mph 1021.7mb 51f 65f
6:30 7 8 mph 1021.7mb 50f 65f
6:24 7 8 mph 1021.8mb 50f 65f
6:18 6 6 mph 1021.8mb 50f 65f
6:12 7 9 mph 1021.8mb 50f 65f
6:06 7 8 mph 1021.7mb 50f 65f
6:00 5 6 mph 1021.8mb 50f 64f
5:54 2 3 mph 1021.8mb 50f 65f
5:48 3 5 mph 1021.9mb 50f 64f
5:36 1 2 mph 1021.9mb 50f 65f
5:30 1 3 mph 1021.9mb 50f 65f
5:24 2 3 mph 1022mb 50f 64f
5:18 3 5 mph 1022mb 50f 63f
5:12 3 5 mph 1022mb 50f 64f
5:06 2 3 mph 1022.1mb 50f 65f
5:00 3 3 mph 1022.2mb 50f 64f
4:54 2 3 mph 1022.2mb 50f 64f
4:48 2 5 mph 1022.2mb 50f 64f
4:36 3 5 mph 1022.2mb 50f 65f
4:30 3 8 mph 1022.2mb 50f 66f
4:24 3 8 mph 1022.2mb 50f 66f
4:18 6 9 mph 1022.2mb 50f 65f
4:12 7 9 mph 1022.2mb 50f 65f
4:06 6 9 mph 1022.2mb 50f 65f
4:00 5 9 mph 1022.2mb 50f 65f
3:54 6 10 mph 1022.3mb 50f 65f
3:48 7 11 mph 1022.5mb 50f 64f
3:36 7 10 mph 1022.6mb 50f 64f
3:30 9 13 mph 1022.6mb 50f 64f
3:24 9 13 mph 1022.5mb 50f 64f
3:18 9 13 mph 1022.6mb 50f 64f
3:12 9 11 mph 1022.6mb 50f 64f
3:06 10 14 mph 1022.6mb 50f 64f
3:00 9 14 mph 1022.6mb 50f 64f
2:54 9 13 mph 1022.6mb 50f 63f
2:48 9 14 mph 1022.6mb 50f 63f
2:36 9 14 mph 1022.6mb 50f 63f
2:30 10 13 mph 1022.7mb 50f 63f
2:24 8 14 mph 1022.7mb 50f 64f
2:18 9 13 mph 1022.7mb 50f 63f
2:12 6 13 mph 1022.8mb 50f 64f
2:06 7 10 mph 1022.7mb 50f 64f
2:00 6 9 mph 1022.6mb 49f 64f
1:54 5 8 mph 1022.7mb 49f 64f
1:48 5 10 mph 1022.8mb 49f 64f
1:36 6 10 mph 1022.8mb 49f 63f
1:30 6 10 mph 1022.8mb 49f 63f
1:24 6 10 mph 1022.8mb 49f 63f
1:18 3 9 mph 1022.8mb 50f 63f
1:12 5 8 mph 1022.8mb 50f 64f
1:06 3 10 mph - - 63f
1:00 3 8 mph - - 62f
12:54 3 11 mph 1022.7mb 50f 63f
12:48 7 13 mph 1022.7mb 50f 62f
12:36 8 11 mph 1022.6mb 50f 61f
12:30 7 10 mph 1022.7mb 50f 61f
12:24 7 9 mph 1022.8mb 50f 61f
12:18 7 10 mph 1022.8mb 50f 60f
12:12 7 10 mph 1022.9mb 50f 60f
12:06 7 13 mph 1023mb 50f 60f
12:00 9 13 mph 1022.9mb 50f 59f
11:54 8 13 mph 1022.9mb 50f 59f
11:48 9 11 mph 1022.9mb 50f 59f
11:36 6 10 mph 1023mb 50f 60f
11:30 5 10 mph 1023mb 50f 60f
11:24 6 11 mph 1022.9mb 50f 59f
11:18 6 10 mph 1022.9mb 50f 59f
11:12 6 9 mph 1022.8mb 50f 59f
11:06 7 11 mph 1022.8mb 50f 59f
11:00 6 9 mph 1022.8mb 50f 59f
10:54 7 11 mph 1022.9mb 50f 60f
10:48 6 10 mph 1022.9mb 50f 59f
10:36 7 10 mph 1022.9mb 50f 58f
10:30 6 9 mph 1022.9mb 50f 58f
10:24 8 14 mph 1022.9mb 50f 58f
10:18 8 11 mph 1022.8mb 50f 58f
10:12 8 14 mph 1022.8mb 50f 58f
10:06 9 13 mph 1022.8mb 50f 58f
10:00 9 11 mph 1022.8mb 50f 58f
9:54 8 11 mph 1022.8mb 50f 58f
9:48 8 13 mph 1022.7mb 50f 58f
9:36 7 10 mph 1022.8mb 50f 58f
9:30 6 9 mph 1022.7mb 50f 58f
9:24 5 8 mph 1022.8mb 50f 58f
9:18 7 10 mph 1022.8mb 50f 57f
9:12 8 11 mph 1022.8mb 50f 57f
9:06 7 14 mph 1022.7mb 50f 56f
9:00 8 10 mph 1022.6mb 50f 57f
8:54 7 10 mph 1022.5mb 50f 56f
8:48 7 9 mph 1022.4mb 50f 56f
8:36 5 9 mph 1022.3mb 50f 55f
8:30 6 9 mph 1022.3mb 50f 56f
8:24 5 8 mph 1022.2mb 50f 56f
8:18 3 6 mph 1022.2mb 50f 54f
8:12 3 5 mph 1022.1mb 50f 54f
8:06 2 5 mph 1022.1mb 50f 52f